Fernando Pessoa — CSKQ — position and weather

sailwx.info

Track history (hours):
 
Tides and Currents Weather Stations Pressure Air Temp Water Temp Dewpoint Dewpoint Depression Visibility Wind Speed Wind Dir Waves Ship Positions

Fernando Pessoa

Last reported at 2017-Jun-26 13:30 UTC. Time now 2017-Jun-26 14:08 UTC.
Position N 38°39' W 009°06'.

Length 49 m.

MMSI: 263701470.

Date/timePositionNaut miles runAvg speedWind from/ knotsBaromVisibWave heightAir tempDewpointWater temp
2017-Jun-26 13:30N 38°39' W 009°06'3 5.4
2017-Jun-26 13:01N 38°41' W 009°08'3 5.2
2017-Jun-26 12:30N 38°39' W 009°06'1 1.1
2017-Jun-26 12:00N 38°39' W 009°05'0 0.0
2017-Jun-26 11:28N 38°39' W 009°05'0 0.0
2017-Jun-26 10:59N 38°39' W 009°05'0 0.0
2017-Jun-26 10:30N 38°39' W 009°05'0 0.2
2017-Jun-26 09:59N 38°39' W 009°05'3 7.0
2017-Jun-26 09:30N 38°41' W 009°08'3 5.6
2017-Jun-26 09:00N 38°39' W 009°06'1 1.4
2017-Jun-26 08:31N 38°39' W 009°05'3 6.4
2017-Jun-26 08:00N 38°41' W 009°08'0 0.3
2017-Jun-26 07:30N 38°41' W 009°08'3 6.2
2017-Jun-26 07:00N 38°39' W 009°05'4 8.4
2017-Jun-26 06:30N 38°42' W 009°08'4 8.3
2017-Jun-26 06:00N 38°39' W 009°05'4 7.1
2017-Jun-26 05:31N 38°42' W 009°08'3 6.4
2017-Jun-26 05:00N 38°39' W 009°05'4 7.2
2017-Jun-26 04:31N 38°42' W 009°08'4 7.4
2017-Jun-26 04:00N 38°39' W 009°05'0 0.0
2017-Jun-26 03:30N 38°39' W 009°05'0 0.0
2017-Jun-26 02:59N 38°39' W 009°05'0 0.0
2017-Jun-26 02:29N 38°39' W 009°05'0 0.0
2017-Jun-26 02:00N 38°39' W 009°05'0 0.0
2017-Jun-26 01:30N 38°39' W 009°05'4 8.3
2017-Jun-26 01:00N 38°42' W 009°08'4 8.4
2017-Jun-26 00:31N 38°39' W 009°05'4 8.3
2017-Jun-26 00:00N 38°42' W 009°08'4 8.2
2017-Jun-25 23:30N 38°39' W 009°05'4 8.5
2017-Jun-25 23:01N 38°42' W 009°08'4 8.3
2017-Jun-25 22:30N 38°39' W 009°05'3 6.9
2017-Jun-25 22:01N 38°42' W 009°08'3 5.0
2017-Jun-25 21:30N 38°40' W 009°06'2 5.0
2017-Jun-25 21:01N 38°41' W 009°08'3 5.6
2017-Jun-25 20:30N 38°39' W 009°06'3 5.6
2017-Jun-25 20:01N 38°41' W 009°08'3 5.5
2017-Jun-25 19:30N 38°39' W 009°06'1 1.5
2017-Jun-25 19:00N 38°39' W 009°05'3 7.0
2017-Jun-25 18:30N 38°41' W 009°08'2 4.6
2017-Jun-25 18:00N 38°40' W 009°06'2 4.4
2017-Jun-25 17:30N 38°41' W 009°08'2 4.8
2017-Jun-25 17:00N 38°40' W 009°06'2 5.0
2017-Jun-25 16:30N 38°41' W 009°08'3 5.7
2017-Jun-25 16:00N 38°39' W 009°06'3 5.6
2017-Jun-25 15:30N 38°41' W 009°08'3 5.2
2017-Jun-25 15:00N 38°39' W 009°06'0 0.2
2017-Jun-25 14:01N 38°39' W 009°05'1 1.1
2017-Jun-25 13:30N 38°39' W 009°05'0 0.0
2017-Jun-25 13:00N 38°39' W 009°05'0 0.0
2017-Jun-25 12:30N 38°39' W 009°05'4 7.1
2017-Jun-25 12:00N 38°42' W 009°08'3 5.8
2017-Jun-25 11:30N 38°39' W 009°06'3 6.5
2017-Jun-25 11:01N 38°42' W 009°08'4 7.2
2017-Jun-25 10:30N 38°39' W 009°05'0 0.6
2017-Jun-25 09:59N 38°39' W 009°05'0 0.0
2017-Jun-25 09:31N 38°39' W 009°05'0 0.0
2017-Jun-25 09:00N 38°39' W 009°05'0 0.0
2017-Jun-23 20:18N 38°39' W 009°05'2 6.2
2017-Jun-23 20:00N 38°40' W 009°07'1 1.1
2017-Jun-23 19:30N 38°40' W 009°07'2 4.8
2017-Jun-23 19:00N 38°39' W 009°05'2 4.1
2017-Jun-23 18:31N 38°40' W 009°07'1 2.2
2017-Jun-23 18:00N 38°39' W 009°06'3 6.9
2017-Jun-23 17:30N 38°42' W 009°08'4 8.3
2017-Jun-23 17:00N 38°39' W 009°05'4 7.2
2017-Jun-23 16:30N 38°42' W 009°08'2 3.5
2017-Jun-23 16:00N 38°40' W 009°07'1 1.1
2017-Jun-23 15:31N 38°40' W 009°08'3 5.3
2017-Jun-23 15:01N 38°39' W 009°05'3 3.3
2017-Jun-23 14:00N 38°41' W 009°08'2 4.3
2017-Jun-23 13:30N 38°40' W 009°06'2 4.6
2017-Jun-23 13:01N 38°41' W 009°08'3 5.9
2017-Jun-23 12:30N 38°39' W 009°05'0 0.8
2017-Jun-23 12:00N 38°39' W 009°05'0 0.0
2017-Jun-23 11:30N 38°39' W 009°05'0 0.0
2017-Jun-23 11:00N 38°39' W 009°05'0 0.0
2017-Jun-23 10:30N 38°39' W 009°05'0 0.0
2017-Jun-23 10:00N 38°39' W 009°05'4 7.4
2017-Jun-23 09:31N 38°42' W 009°08'3 6.7
2017-Jun-23 09:00N 38°39' W 009°05'1 1.0
2017-Jun-23 08:30N 38°39' W 009°05'3 7.0
2017-Jun-23 08:01N 38°42' W 009°08'2 3.4
2017-Jun-23 07:30N 38°40' W 009°07'1 2.6
2017-Jun-23 07:00N 38°39' W 009°06'4 7.1
2017-Jun-23 06:30N 38°42' W 009°08'4 8.4
2017-Jun-23 06:00N 38°39' W 009°05'4 7.9
2017-Jun-23 05:31N 38°42' W 009°08'4 7.7
2017-Jun-23 05:01N 38°39' W 009°05'4 7.5
2017-Jun-23 04:31N 38°42' W 009°08'4 7.6
2017-Jun-23 04:00N 38°39' W 009°05'0 0.0
2017-Jun-23 03:30N 38°39' W 009°05'0 0.0
2017-Jun-23 02:59N 38°39' W 009°05'0 0.0
2017-Jun-23 02:26N 38°39' W 009°05'0 0.0
2017-Jun-23 01:56N 38°39' W 009°05'0 0.0
2017-Jun-23 01:29N 38°39' W 009°05'4 8.8
2017-Jun-23 01:00N 38°42' W 009°08'4 7.9
2017-Jun-23 00:29N 38°39' W 009°05'4 8.8
2017-Jun-23 00:00N 38°42' W 009°08'4 8.0
2017-Jun-22 23:29N 38°39' W 009°05'4 8.5
2017-Jun-22 23:00N 38°42' W 009°08'4 8.3
2017-Jun-22 22:30N 38°39' W 009°05'3 6.7
2017-Jun-22 22:01N 38°41' W 009°08'3 5.9
2017-Jun-22 21:31N 38°39' W 009°05'3 6.4
2017-Jun-22 21:00N 38°42' W 009°08'3 5.8
2017-Jun-22 20:30N 38°39' W 009°06'1 1.7
2017-Jun-22 20:00N 38°39' W 009°05'0 0.0
2017-Jun-22 19:31N 38°39' W 009°05'4 8.3
2017-Jun-22 19:01N 38°42' W 009°08'4 8.3
2017-Jun-22 18:30N 38°39' W 009°05'4 7.9
2017-Jun-22 18:00N 38°42' W 009°08'2 4.2
2017-Jun-22 17:30N 38°40' W 009°07'1 2.4
2017-Jun-22 17:00N 38°39' W 009°06'3 6.7
2017-Jun-22 16:30N 38°42' W 009°08'4 8.3
2017-Jun-22 16:00N 38°39' W 009°05'4 8.4
2017-Jun-22 15:30N 38°42' W 009°08'4 8.3
2017-Jun-22 15:00N 38°39' W 009°05'1 0.8
2017-Jun-22 14:00N 38°39' W 009°06'3 5.4
2017-Jun-22 13:30N 38°41' W 009°08'3 5.1
2017-Jun-22 13:00N 38°39' W 009°06'3 5.7
2017-Jun-22 12:30N 38°42' W 009°08'3 6.2
2017-Jun-22 12:00N 38°39' W 009°06'3 6.1
2017-Jun-22 11:30N 38°42' W 009°08'3 6.1
2017-Jun-22 11:00N 38°39' W 009°06'3 5.6
2017-Jun-22 10:30N 38°41' W 009°08'3 6.5
2017-Jun-22 09:59N 38°39' W 009°05'0 0.1
2017-Jun-22 09:27N 38°39' W 009°05'0 0.0
2017-Jun-22 09:00N 38°39' W 009°05'3 5.5
2017-Jun-22 08:30N 38°40' W 009°08'3 5.4
2017-Jun-22 08:01N 38°39' W 009°05'4 8.3
2017-Jun-22 07:30N 38°42' W 009°08'4 7.8
2017-Jun-22 07:00N 38°39' W 009°05'2 3.9
2017-Jun-22 06:31N 38°40' W 009°07'2 4.3
2017-Jun-22 06:00N 38°39' W 009°05'0 0.0
2017-Jun-22 05:30N 38°39' W 009°05'0 0.0
2017-Jun-22 05:00N 38°39' W 009°05'0 0.0
2017-Jun-22 04:30N 38°39' W 009°05'0 0.0
2017-Jun-22 03:59N 38°39' W 009°05'0 0.0
2017-Jun-22 03:30N 38°39' W 009°05'0 0.0
2017-Jun-22 02:59N 38°39' W 009°05'0 0.0
2017-Jun-22 02:29N 38°39' W 009°05'0 0.0
2017-Jun-22 01:58N 38°39' W 009°05'0 0.0
2017-Jun-22 01:30N 38°39' W 009°05'0 0.0
2017-Jun-22 01:00N 38°39' W 009°05'0 0.0
2017-Jun-22 00:28N 38°39' W 009°05'0 0.0
2017-Jun-22 00:00N 38°39' W 009°05'0 0.0
2017-Jun-21 23:30N 38°39' W 009°05'0 0.0
2017-Jun-21 22:59N 38°39' W 009°05'0 0.0
2017-Jun-21 22:29N 38°39' W 009°05'0 0.0
2017-Jun-21 22:00N 38°39' W 009°05'0 0.0
2017-Jun-21 21:29N 38°39' W 009°05'0 0.0
2017-Jun-21 21:00N 38°39' W 009°05'0 0.3
2017-Jun-21 20:31N 38°39' W 009°05'4 8.3
2017-Jun-21 20:00N 38°42' W 009°08'4 8.4
2017-Jun-21 19:30N 38°39' W 009°05'2 4.6
2017-Jun-21 19:01N 38°40' W 009°07'1 1.3
2017-Jun-21 18:31N 38°41' W 009°08'1 1.8
2017-Jun-21 18:01N 38°40' W 009°07'1 1.9
2017-Jun-21 17:30N 38°39' W 009°06'3 6.7
2017-Jun-21 17:01N 38°42' W 009°08'4 8.3
2017-Jun-21 16:31N 38°39' W 009°05'4 8.3
2017-Jun-21 16:01N 38°42' W 009°08'3 6.6
2017-Jun-21 15:31N 38°40' W 009°06'2 4.5
2017-Jun-21 15:00N 38°41' W 009°08'3 6.1
2017-Jun-21 14:30N 38°39' W 009°05'0 0.0
2017-Jun-21 10:18N 38°39' W 009°05'0 0.4
2017-Jun-21 10:01N 38°39' W 009°05'3 6.5
2017-Jun-21 09:30N 38°41' W 009°08'3 6.4
2017-Jun-21 09:00N 38°39' W 009°05'0 0.1
2017-Jun-21 08:30N 38°39' W 009°05'3 5.5
2017-Jun-21 08:01N 38°41' W 009°08'1 1.8
2017-Jun-21 07:30N 38°40' W 009°07'1 2.9
2017-Jun-21 07:00N 38°39' W 009°05'4 7.7
2017-Jun-21 06:30N 38°42' W 009°08'4 8.3
2017-Jun-21 06:00N 38°39' W 009°05'4 7.9
2017-Jun-21 05:31N 38°42' W 009°08'4 7.1
2017-Jun-21 05:01N 38°39' W 009°05'3 6.5
2017-Jun-21 04:30N 38°42' W 009°08'4 7.2
2017-Jun-21 04:00N 38°39' W 009°05'0 0.0
2017-Jun-21 03:30N 38°39' W 009°05'0 0.0
2017-Jun-21 02:59N 38°39' W 009°05'0 0.0
2017-Jun-21 02:29N 38°39' W 009°05'0 0.0
2017-Jun-21 01:59N 38°39' W 009°05'0 0.0
2017-Jun-21 01:29N 38°39' W 009°05'4 8.6
2017-Jun-21 01:00N 38°42' W 009°08'4 8.3
2017-Jun-21 00:30N 38°39' W 009°05'4 8.3
2017-Jun-21 00:00N 38°42' W 009°08'4 8.3
2017-Jun-20 23:30N 38°39' W 009°05'4 8.3
2017-Jun-20 23:00N 38°42' W 009°08'4 8.4
2017-Jun-20 22:30N 38°39' W 009°05'4 7.2
2017-Jun-20 22:01N 38°42' W 009°08'3 5.5
2017-Jun-20 21:30N 38°39' W 009°06'3 5.1
2017-Jun-20 21:00N 38°41' W 009°08'3 5.1
2017-Jun-20 20:31N 38°39' W 009°06'1 1.9
2017-Jun-20 20:00N 38°39' W 009°05'0 0.0
2017-Jun-20 19:29N 38°39' W 009°05'4 8.8
2017-Jun-20 19:00N 38°42' W 009°08'4 8.3
2017-Jun-20 18:30N 38°39' W 009°05'4 7.3
2017-Jun-20 18:00N 38°42' W 009°08'1 3.0
2017-Jun-20 17:31N 38°40' W 009°08'2 3.5
2017-Jun-20 17:00N 38°39' W 009°06'3 6.9
2017-Jun-20 16:30N 38°42' W 009°08'4 8.1
2017-Jun-20 16:00N 38°39' W 009°05'4 8.5
2017-Jun-20 15:30N 38°42' W 009°08'4 8.3
2017-Jun-20 15:00N 38°39' W 009°05'1 0.7
2017-Jun-20 14:01N 38°39' W 009°06'3 5.3
2017-Jun-20 13:30N 38°41' W 009°08'3 5.4
2017-Jun-20 13:00N 38°39' W 009°06'1 1.3
2017-Jun-20 12:30N 38°39' W 009°05'0 0.2
2017-Jun-20 12:00N 38°39' W 009°05'0 0.0
2017-Jun-20 11:25N 38°39' W 009°05'0 0.0
2017-Jun-20 11:00N 38°39' W 009°05'0 0.0
2017-Jun-20 10:30N 38°39' W 009°05'3 6.8
2017-Jun-20 10:01N 38°41' W 009°08'3 5.4
2017-Jun-20 09:30N 38°39' W 009°06'1 1.1
2017-Jun-20 09:00N 38°39' W 009°05'4 8.3
2017-Jun-20 08:31N 38°42' W 009°08'3 5.7
2017-Jun-20 08:01N 38°40' W 009°06'0 0.8
2017-Jun-20 07:30N 38°40' W 009°07'3 5.1
2017-Jun-20 07:01N 38°42' W 009°08'4 8.3
2017-Jun-20 06:30N 38°39' W 009°05'4 8.3
2017-Jun-20 06:00N 38°42' W 009°08'4 8.3
2017-Jun-20 05:31N 38°39' W 009°05'4 7.3
2017-Jun-20 05:01N 38°42' W 009°08'4 7.3
2017-Jun-20 04:30N 38°39' W 009°05'0 0.0
2017-Jun-20 04:00N 38°39' W 009°05'0 0.0
2017-Jun-20 03:30N 38°39' W 009°05'0 0.0
2017-Jun-20 03:00N 38°39' W 009°05'0 0.0
2017-Jun-20 02:30N 38°39' W 009°05'0 0.0
2017-Jun-20 02:00N 38°39' W 009°05'0 0.0
2017-Jun-20 01:30N 38°39' W 009°05'0 0.0
2017-Jun-20 01:00N 38°39' W 009°05'0 0.0
2017-Jun-20 00:30N 38°39' W 009°05'0 0.0
2017-Jun-20 00:00N 38°39' W 009°05'0 0.0
2017-Jun-19 23:30N 38°39' W 009°05'0 0.0
2017-Jun-19 23:00N 38°39' W 009°05'4 8.4
2017-Jun-19 22:30N 38°42' W 009°08'4 8.3
2017-Jun-19 22:00N 38°39' W 009°05'4 7.0
2017-Jun-19 21:30N 38°42' W 009°08'4 7.0
2017-Jun-19 21:00N 38°39' W 009°05'3 6.7
2017-Jun-19 20:31N 38°41' W 009°08'3 6.7
2017-Jun-19 20:00N 38°39' W 009°05'0 0.0
2017-Jun-19 19:31N 38°39' W 009°05'4 8.3
2017-Jun-19 19:00N 38°42' W 009°08'4 8.3
2017-Jun-19 18:30N 38°39' W 009°05'4 8.4
2017-Jun-19 18:01N 38°42' W 009°08'4 8.1
2017-Jun-19 17:30N 38°39' W 009°05'4 8.0
2017-Jun-19 17:01N 38°42' W 009°08'2 4.9
2017-Jun-19 16:31N 38°40' W 009°07'1 1.7
2017-Jun-19 16:00N 38°41' W 009°07'2 4.6
2017-Jun-19 15:28N 38°39' W 009°05'0 0.0
2017-Jun-19 10:07N 38°39' W 009°05'0 0.0
2017-Jun-19 10:00N 38°39' W 009°05'0 0.2
2017-Jun-19 09:30N 38°39' W 009°05'0 0.2
2017-Jun-19 09:00N 38°39' W 009°05'0 0.0
2017-Jun-19 08:30N 38°39' W 009°05'3 6.6
2017-Jun-19 08:00N 38°42' W 009°08'2 3.4
2017-Jun-19 07:31N 38°40' W 009°07'1 1.8
2017-Jun-19 07:01N 38°39' W 009°06'3 6.7
2017-Jun-19 06:30N 38°42' W 009°08'4 8.3
2017-Jun-19 06:00N 38°39' W 009°05'4 7.4
2017-Jun-19 05:31N 38°42' W 009°08'4 7.2
2017-Jun-19 05:00N 38°39' W 009°05'4 7.2
2017-Jun-19 04:30N 38°42' W 009°08'4 7.4
2017-Jun-19 04:00N 38°39' W 009°05'0 0.0
2017-Jun-19 03:30N 38°39' W 009°05'0 0.0
2017-Jun-19 03:00N 38°39' W 009°05'0 0.0
2017-Jun-19 02:30N 38°39' W 009°05'0 0.0
2017-Jun-19 02:00N 38°39' W 009°05'0 0.0
2017-Jun-19 01:30N 38°39' W 009°05'4 8.3
2017-Jun-19 01:01N 38°42' W 009°08'4 8.3
2017-Jun-19 00:30N 38°39' W 009°05'4 8.3
2017-Jun-19 00:00N 38°42' W 009°08'4 8.3
2017-Jun-18 23:30N 38°39' W 009°05'4 8.3
2017-Jun-18 23:00N 38°42' W 009°08'4 8.3
2017-Jun-18 22:30N 38°39' W 009°05'3 6.9
2017-Jun-18 22:01N 38°41' W 009°08'3 5.6
2017-Jun-18 21:31N 38°39' W 009°06'3 5.3
2017-Jun-18 21:00N 38°41' W 009°08'3 5.1
2017-Jun-18 20:31N 38°39' W 009°06'2 4.8
2017-Jun-18 20:00N 38°41' W 009°08'3 6.0
2017-Jun-18 19:30N 38°39' W 009°05'0 0.6
2017-Jun-18 19:00N 38°39' W 009°05'4 7.9
2017-Jun-18 18:31N 38°42' W 009°08'4 7.1
2017-Jun-18 18:01N 38°39' W 009°05'3 6.4
2017-Jun-18 17:30N 38°42' W 009°08'3 5.0
2017-Jun-18 17:00N 38°40' W 009°06'3 5.1
2017-Jun-18 16:30N 38°42' W 009°08'3 5.9
2017-Jun-18 16:01N 38°39' W 009°06'3 5.2
2017-Jun-18 15:30N 38°41' W 009°08'2 4.6
2017-Jun-18 15:00N 38°40' W 009°06'0 0.1
2017-Jun-18 14:01N 38°40' W 009°06'1 2.3
2017-Jun-18 13:30N 38°39' W 009°05'0 0.0
2017-Jun-18 13:00N 38°39' W 009°05'0 0.0
2017-Jun-18 12:30N 38°39' W 009°05'3 6.5
2017-Jun-18 12:00N 38°41' W 009°08'2 4.8
2017-Jun-18 11:30N 38°39' W 009°06'3 5.5
2017-Jun-18 11:00N 38°42' W 009°08'3 5.4
2017-Jun-18 10:30N 38°39' W 009°06'1 1.7
2017-Jun-18 10:00N 38°39' W 009°05'0 0.0
2017-Jun-18 09:30N 38°39' W 009°05'0 0.0
2017-Jun-18 09:00N 38°39' W 009°05'0 0.0
2017-Jun-16 20:50N 38°39' W 009°05'0 0.4
2017-Jun-16 20:30N 38°39' W 009°05'4 8.1
2017-Jun-16 20:00N 38°42' W 009°08'4 8.4
2017-Jun-16 19:30N 38°39' W 009°05'0 0.0
2017-Jun-16 19:01N 38°39' W 009°05'4 8.2
2017-Jun-16 18:30N 38°42' W 009°08'3 5.1
2017-Jun-16 18:01N 38°40' W 009°07'1 2.2
2017-Jun-16 17:30N 38°39' W 009°06'3 6.9
2017-Jun-16 17:01N 38°42' W 009°08'4 8.3
2017-Jun-16 16:30N 38°39' W 009°05'4 8.3
2017-Jun-16 16:01N 38°42' W 009°08'4 7.6
2017-Jun-16 15:30N 38°39' W 009°05'2 4.9
2017-Jun-16 15:01N 38°41' W 009°07'  
Track history (hours):
 
Tides and Currents Weather Stations Pressure Air Temp Water Temp Dewpoint Dewpoint Depression Visibility Wind Speed Wind Dir Waves Ship Positions

Fernando Pessoa

Last reported at 2017-Jun-26 13:30 UTC. Time now 2017-Jun-26 14:08 UTC.
Position N 38°39' W 009°06'.

Length 49 m.

MMSI: 263701470.

Date/timePositionNaut miles runAvg speedWind from/ knotsBaromVisibWave heightAir tempDewpointWater temp
2017-Jun-26 13:30N 38°39' W 009°06'3 5.4
2017-Jun-26 13:01N 38°41' W 009°08'3 5.2
2017-Jun-26 12:30N 38°39' W 009°06'1 1.1
2017-Jun-26 12:00N 38°39' W 009°05'0 0.0
2017-Jun-26 11:28N 38°39' W 009°05'0 0.0
2017-Jun-26 10:59N 38°39' W 009°05'0 0.0
2017-Jun-26 10:30N 38°39' W 009°05'0 0.2
2017-Jun-26 09:59N 38°39' W 009°05'3 7.0
2017-Jun-26 09:30N 38°41' W 009°08'3 5.6
2017-Jun-26 09:00N 38°39' W 009°06'1 1.4
2017-Jun-26 08:31N 38°39' W 009°05'3 6.4
2017-Jun-26 08:00N 38°41' W 009°08'0 0.3
2017-Jun-26 07:30N 38°41' W 009°08'3 6.2
2017-Jun-26 07:00N 38°39' W 009°05'4 8.4
2017-Jun-26 06:30N 38°42' W 009°08'4 8.3
2017-Jun-26 06:00N 38°39' W 009°05'4 7.1
2017-Jun-26 05:31N 38°42' W 009°08'3 6.4
2017-Jun-26 05:00N 38°39' W 009°05'4 7.2
2017-Jun-26 04:31N 38°42' W 009°08'4 7.4
2017-Jun-26 04:00N 38°39' W 009°05'0 0.0
2017-Jun-26 03:30N 38°39' W 009°05'0 0.0
2017-Jun-26 02:59N 38°39' W 009°05'0 0.0
2017-Jun-26 02:29N 38°39' W 009°05'0 0.0
2017-Jun-26 02:00N 38°39' W 009°05'0 0.0
2017-Jun-26 01:30N 38°39' W 009°05'4 8.3
2017-Jun-26 01:00N 38°42' W 009°08'4 8.4
2017-Jun-26 00:31N 38°39' W 009°05'4 8.3
2017-Jun-26 00:00N 38°42' W 009°08'4 8.2
2017-Jun-25 23:30N 38°39' W 009°05'4 8.5
2017-Jun-25 23:01N 38°42' W 009°08'4 8.3
2017-Jun-25 22:30N 38°39' W 009°05'3 6.9
2017-Jun-25 22:01N 38°42' W 009°08'3 5.0
2017-Jun-25 21:30N 38°40' W 009°06'2 5.0
2017-Jun-25 21:01N 38°41' W 009°08'3 5.6
2017-Jun-25 20:30N 38°39' W 009°06'3 5.6
2017-Jun-25 20:01N 38°41' W 009°08'3 5.5
2017-Jun-25 19:30N 38°39' W 009°06'1 1.5
2017-Jun-25 19:00N 38°39' W 009°05'3 7.0
2017-Jun-25 18:30N 38°41' W 009°08'2 4.6
2017-Jun-25 18:00N 38°40' W 009°06'2 4.4
2017-Jun-25 17:30N 38°41' W 009°08'2 4.8
2017-Jun-25 17:00N 38°40' W 009°06'2 5.0
2017-Jun-25 16:30N 38°41' W 009°08'3 5.7
2017-Jun-25 16:00N 38°39' W 009°06'3 5.6
2017-Jun-25 15:30N 38°41' W 009°08'3 5.2
2017-Jun-25 15:00N 38°39' W 009°06'0 0.2
2017-Jun-25 14:01N 38°39' W 009°05'1 1.1
2017-Jun-25 13:30N 38°39' W 009°05'0 0.0
2017-Jun-25 13:00N 38°39' W 009°05'0 0.0
2017-Jun-25 12:30N 38°39' W 009°05'4 7.1
2017-Jun-25 12:00N 38°42' W 009°08'3 5.8
2017-Jun-25 11:30N 38°39' W 009°06'3 6.5
2017-Jun-25 11:01N 38°42' W 009°08'4 7.2
2017-Jun-25 10:30N 38°39' W 009°05'0 0.6
2017-Jun-25 09:59N 38°39' W 009°05'0 0.0
2017-Jun-25 09:31N 38°39' W 009°05'0 0.0
2017-Jun-25 09:00N 38°39' W 009°05'0 0.0
2017-Jun-23 20:18N 38°39' W 009°05'2 6.2
2017-Jun-23 20:00N 38°40' W 009°07'1 1.1
2017-Jun-23 19:30N 38°40' W 009°07'2 4.8
2017-Jun-23 19:00N 38°39' W 009°05'2 4.1
2017-Jun-23 18:31N 38°40' W 009°07'1 2.2
2017-Jun-23 18:00N 38°39' W 009°06'3 6.9
2017-Jun-23 17:30N 38°42' W 009°08'4 8.3
2017-Jun-23 17:00N 38°39' W 009°05'4 7.2
2017-Jun-23 16:30N 38°42' W 009°08'2 3.5
2017-Jun-23 16:00N 38°40' W 009°07'1 1.1
2017-Jun-23 15:31N 38°40' W 009°08'3 5.3
2017-Jun-23 15:01N 38°39' W 009°05'3 3.3
2017-Jun-23 14:00N 38°41' W 009°08'2 4.3
2017-Jun-23 13:30N 38°40' W 009°06'2 4.6
2017-Jun-23 13:01N 38°41' W 009°08'3 5.9
2017-Jun-23 12:30N 38°39' W 009°05'0 0.8
2017-Jun-23 12:00N 38°39' W 009°05'0 0.0
2017-Jun-23 11:30N 38°39' W 009°05'0 0.0
2017-Jun-23 11:00N 38°39' W 009°05'0 0.0
2017-Jun-23 10:30N 38°39' W 009°05'0 0.0
2017-Jun-23 10:00N 38°39' W 009°05'4 7.4
2017-Jun-23 09:31N 38°42' W 009°08'3 6.7
2017-Jun-23 09:00N 38°39' W 009°05'1 1.0
2017-Jun-23 08:30N 38°39' W 009°05'3 7.0
2017-Jun-23 08:01N 38°42' W 009°08'2 3.4
2017-Jun-23 07:30N 38°40' W 009°07'1 2.6
2017-Jun-23 07:00N 38°39' W 009°06'4 7.1
2017-Jun-23 06:30N 38°42' W 009°08'4 8.4
2017-Jun-23 06:00N 38°39' W 009°05'4 7.9
2017-Jun-23 05:31N 38°42' W 009°08'4 7.7
2017-Jun-23 05:01N 38°39' W 009°05'4 7.5
2017-Jun-23 04:31N 38°42' W 009°08'4 7.6
2017-Jun-23 04:00N 38°39' W 009°05'0 0.0
2017-Jun-23 03:30N 38°39' W 009°05'0 0.0
2017-Jun-23 02:59N 38°39' W 009°05'0 0.0
2017-Jun-23 02:26N 38°39' W 009°05'0 0.0
2017-Jun-23 01:56N 38°39' W 009°05'0 0.0
2017-Jun-23 01:29N 38°39' W 009°05'4 8.8
2017-Jun-23 01:00N 38°42' W 009°08'4 7.9
2017-Jun-23 00:29N 38°39' W 009°05'4 8.8
2017-Jun-23 00:00N 38°42' W 009°08'4 8.0
2017-Jun-22 23:29N 38°39' W 009°05'4 8.5
2017-Jun-22 23:00N 38°42' W 009°08'4 8.3
2017-Jun-22 22:30N 38°39' W 009°05'3 6.7
2017-Jun-22 22:01N 38°41' W 009°08'3 5.9
2017-Jun-22 21:31N 38°39' W 009°05'3 6.4
2017-Jun-22 21:00N 38°42' W 009°08'3 5.8
2017-Jun-22 20:30N 38°39' W 009°06'1 1.7
2017-Jun-22 20:00N 38°39' W 009°05'0 0.0
2017-Jun-22 19:31N 38°39' W 009°05'4 8.3
2017-Jun-22 19:01N 38°42' W 009°08'4 8.3
2017-Jun-22 18:30N 38°39' W 009°05'4 7.9
2017-Jun-22 18:00N 38°42' W 009°08'2 4.2
2017-Jun-22 17:30N 38°40' W 009°07'1 2.4
2017-Jun-22 17:00N 38°39' W 009°06'3 6.7
2017-Jun-22 16:30N 38°42' W 009°08'4 8.3
2017-Jun-22 16:00N 38°39' W 009°05'4 8.4
2017-Jun-22 15:30N 38°42' W 009°08'4 8.3
2017-Jun-22 15:00N 38°39' W 009°05'1 0.8
2017-Jun-22 14:00N 38°39' W 009°06'3 5.4
2017-Jun-22 13:30N 38°41' W 009°08'3 5.1
2017-Jun-22 13:00N 38°39' W 009°06'3 5.7
2017-Jun-22 12:30N 38°42' W 009°08'3 6.2
2017-Jun-22 12:00N 38°39' W 009°06'3 6.1
2017-Jun-22 11:30N 38°42' W 009°08'3 6.1
2017-Jun-22 11:00N 38°39' W 009°06'3 5.6
2017-Jun-22 10:30N 38°41' W 009°08'3 6.5
2017-Jun-22 09:59N 38°39' W 009°05'0 0.1
2017-Jun-22 09:27N 38°39' W 009°05'0 0.0
2017-Jun-22 09:00N 38°39' W 009°05'3 5.5
2017-Jun-22 08:30N 38°40' W 009°08'3 5.4
2017-Jun-22 08:01N 38°39' W 009°05'4 8.3
2017-Jun-22 07:30N 38°42' W 009°08'4 7.8
2017-Jun-22 07:00N 38°39' W 009°05'2 3.9
2017-Jun-22 06:31N 38°40' W 009°07'2 4.3
2017-Jun-22 06:00N 38°39' W 009°05'0 0.0
2017-Jun-22 05:30N 38°39' W 009°05'0 0.0
2017-Jun-22 05:00N 38°39' W 009°05'0 0.0
2017-Jun-22 04:30N 38°39' W 009°05'0 0.0
2017-Jun-22 03:59N 38°39' W 009°05'0 0.0
2017-Jun-22 03:30N 38°39' W 009°05'0 0.0
2017-Jun-22 02:59N 38°39' W 009°05'0 0.0
2017-Jun-22 02:29N 38°39' W 009°05'0 0.0
2017-Jun-22 01:58N 38°39' W 009°05'0 0.0
2017-Jun-22 01:30N 38°39' W 009°05'0 0.0
2017-Jun-22 01:00N 38°39' W 009°05'0 0.0
2017-Jun-22 00:28N 38°39' W 009°05'0 0.0
2017-Jun-22 00:00N 38°39' W 009°05'0 0.0
2017-Jun-21 23:30N 38°39' W 009°05'0 0.0
2017-Jun-21 22:59N 38°39' W 009°05'0 0.0
2017-Jun-21 22:29N 38°39' W 009°05'0 0.0
2017-Jun-21 22:00N 38°39' W 009°05'0 0.0
2017-Jun-21 21:29N 38°39' W 009°05'0 0.0
2017-Jun-21 21:00N 38°39' W 009°05'0 0.3
2017-Jun-21 20:31N 38°39' W 009°05'4 8.3
2017-Jun-21 20:00N 38°42' W 009°08'4 8.4
2017-Jun-21 19:30N 38°39' W 009°05'2 4.6
2017-Jun-21 19:01N 38°40' W 009°07'1 1.3
2017-Jun-21 18:31N 38°41' W 009°08'1 1.8
2017-Jun-21 18:01N 38°40' W 009°07'1 1.9
2017-Jun-21 17:30N 38°39' W 009°06'3 6.7
2017-Jun-21 17:01N 38°42' W 009°08'4 8.3
2017-Jun-21 16:31N 38°39' W 009°05'4 8.3
2017-Jun-21 16:01N 38°42' W 009°08'3 6.6
2017-Jun-21 15:31N 38°40' W 009°06'2 4.5
2017-Jun-21 15:00N 38°41' W 009°08'3 6.1
2017-Jun-21 14:30N 38°39' W 009°05'0 0.0
2017-Jun-21 10:18N 38°39' W 009°05'0 0.4
2017-Jun-21 10:01N 38°39' W 009°05'3 6.5
2017-Jun-21 09:30N 38°41' W 009°08'3 6.4
2017-Jun-21 09:00N 38°39' W 009°05'0 0.1
2017-Jun-21 08:30N 38°39' W 009°05'3 5.5
2017-Jun-21 08:01N 38°41' W 009°08'1 1.8
2017-Jun-21 07:30N 38°40' W 009°07'1 2.9
2017-Jun-21 07:00N 38°39' W 009°05'4 7.7
2017-Jun-21 06:30N 38°42' W 009°08'4 8.3
2017-Jun-21 06:00N 38°39' W 009°05'4 7.9
2017-Jun-21 05:31N 38°42' W 009°08'4 7.1
2017-Jun-21 05:01N 38°39' W 009°05'3 6.5
2017-Jun-21 04:30N 38°42' W 009°08'4 7.2
2017-Jun-21 04:00N 38°39' W 009°05'0 0.0
2017-Jun-21 03:30N 38°39' W 009°05'0 0.0
2017-Jun-21 02:59N 38°39' W 009°05'0 0.0
2017-Jun-21 02:29N 38°39' W 009°05'0 0.0
2017-Jun-21 01:59N 38°39' W 009°05'0 0.0
2017-Jun-21 01:29N 38°39' W 009°05'4 8.6
2017-Jun-21 01:00N 38°42' W 009°08'4 8.3
2017-Jun-21 00:30N 38°39' W 009°05'4 8.3
2017-Jun-21 00:00N 38°42' W 009°08'4 8.3
2017-Jun-20 23:30N 38°39' W 009°05'4 8.3
2017-Jun-20 23:00N 38°42' W 009°08'4 8.4
2017-Jun-20 22:30N 38°39' W 009°05'4 7.2
2017-Jun-20 22:01N 38°42' W 009°08'3 5.5
2017-Jun-20 21:30N 38°39' W 009°06'3 5.1
2017-Jun-20 21:00N 38°41' W 009°08'3 5.1
2017-Jun-20 20:31N 38°39' W 009°06'1 1.9
2017-Jun-20 20:00N 38°39' W 009°05'0 0.0
2017-Jun-20 19:29N 38°39' W 009°05'4 8.8
2017-Jun-20 19:00N 38°42' W 009°08'4 8.3
2017-Jun-20 18:30N 38°39' W 009°05'4 7.3
2017-Jun-20 18:00N 38°42' W 009°08'1 3.0
2017-Jun-20 17:31N 38°40' W 009°08'2 3.5
2017-Jun-20 17:00N 38°39' W 009°06'3 6.9
2017-Jun-20 16:30N 38°42' W 009°08'4 8.1
2017-Jun-20 16:00N 38°39' W 009°05'4 8.5
2017-Jun-20 15:30N 38°42' W 009°08'4 8.3
2017-Jun-20 15:00N 38°39' W 009°05'1 0.7
2017-Jun-20 14:01N 38°39' W 009°06'3 5.3
2017-Jun-20 13:30N 38°41' W 009°08'3 5.4
2017-Jun-20 13:00N 38°39' W 009°06'1 1.3
2017-Jun-20 12:30N 38°39' W 009°05'0 0.2
2017-Jun-20 12:00N 38°39' W 009°05'0 0.0
2017-Jun-20 11:25N 38°39' W 009°05'0 0.0
2017-Jun-20 11:00N 38°39' W 009°05'0 0.0
2017-Jun-20 10:30N 38°39' W 009°05'3 6.8
2017-Jun-20 10:01N 38°41' W 009°08'3 5.4
2017-Jun-20 09:30N 38°39' W 009°06'1 1.1
2017-Jun-20 09:00N 38°39' W 009°05'4 8.3
2017-Jun-20 08:31N 38°42' W 009°08'3 5.7
2017-Jun-20 08:01N 38°40' W 009°06'0 0.8
2017-Jun-20 07:30N 38°40' W 009°07'3 5.1
2017-Jun-20 07:01N 38°42' W 009°08'4 8.3
2017-Jun-20 06:30N 38°39' W 009°05'4 8.3
2017-Jun-20 06:00N 38°42' W 009°08'4 8.3
2017-Jun-20 05:31N 38°39' W 009°05'4 7.3
2017-Jun-20 05:01N 38°42' W 009°08'4 7.3
2017-Jun-20 04:30N 38°39' W 009°05'0 0.0
2017-Jun-20 04:00N 38°39' W 009°05'0 0.0
2017-Jun-20 03:30N 38°39' W 009°05'0 0.0
2017-Jun-20 03:00N 38°39' W 009°05'0 0.0
2017-Jun-20 02:30N 38°39' W 009°05'0 0.0
2017-Jun-20 02:00N 38°39' W 009°05'0 0.0
2017-Jun-20 01:30N 38°39' W 009°05'0 0.0
2017-Jun-20 01:00N 38°39' W 009°05'0 0.0
2017-Jun-20 00:30N 38°39' W 009°05'0 0.0
2017-Jun-20 00:00N 38°39' W 009°05'0 0.0
2017-Jun-19 23:30N 38°39' W 009°05'0 0.0
2017-Jun-19 23:00N 38°39' W 009°05'4 8.4
2017-Jun-19 22:30N 38°42' W 009°08'4 8.3
2017-Jun-19 22:00N 38°39' W 009°05'4 7.0
2017-Jun-19 21:30N 38°42' W 009°08'4 7.0
2017-Jun-19 21:00N 38°39' W 009°05'3 6.7
2017-Jun-19 20:31N 38°41' W 009°08'3 6.7
2017-Jun-19 20:00N 38°39' W 009°05'0 0.0
2017-Jun-19 19:31N 38°39' W 009°05'4 8.3
2017-Jun-19 19:00N 38°42' W 009°08'4 8.3
2017-Jun-19 18:30N 38°39' W 009°05'4 8.4
2017-Jun-19 18:01N 38°42' W 009°08'4 8.1
2017-Jun-19 17:30N 38°39' W 009°05'4 8.0
2017-Jun-19 17:01N 38°42' W 009°08'2 4.9
2017-Jun-19 16:31N 38°40' W 009°07'1 1.7
2017-Jun-19 16:00N 38°41' W 009°07'2 4.6
2017-Jun-19 15:28N 38°39' W 009°05'0 0.0
2017-Jun-19 10:07N 38°39' W 009°05'0 0.0
2017-Jun-19 10:00N 38°39' W 009°05'0 0.2
2017-Jun-19 09:30N 38°39' W 009°05'0 0.2
2017-Jun-19 09:00N 38°39' W 009°05'0 0.0
2017-Jun-19 08:30N 38°39' W 009°05'3 6.6
2017-Jun-19 08:00N 38°42' W 009°08'2 3.4
2017-Jun-19 07:31N 38°40' W 009°07'1 1.8
2017-Jun-19 07:01N 38°39' W 009°06'3 6.7
2017-Jun-19 06:30N 38°42' W 009°08'4 8.3
2017-Jun-19 06:00N 38°39' W 009°05'4 7.4
2017-Jun-19 05:31N 38°42' W 009°08'4 7.2
2017-Jun-19 05:00N 38°39' W 009°05'4 7.2
2017-Jun-19 04:30N 38°42' W 009°08'4 7.4
2017-Jun-19 04:00N 38°39' W 009°05'0 0.0
2017-Jun-19 03:30N 38°39' W 009°05'0 0.0
2017-Jun-19 03:00N 38°39' W 009°05'0 0.0
2017-Jun-19 02:30N 38°39' W 009°05'0 0.0
2017-Jun-19 02:00N 38°39' W 009°05'0 0.0
2017-Jun-19 01:30N 38°39' W 009°05'4 8.3
2017-Jun-19 01:01N 38°42' W 009°08'4 8.3
2017-Jun-19 00:30N 38°39' W 009°05'4 8.3
2017-Jun-19 00:00N 38°42' W 009°08'4 8.3
2017-Jun-18 23:30N 38°39' W 009°05'4 8.3
2017-Jun-18 23:00N 38°42' W 009°08'4 8.3
2017-Jun-18 22:30N 38°39' W 009°05'3 6.9
2017-Jun-18 22:01N 38°41' W 009°08'3 5.6
2017-Jun-18 21:31N 38°39' W 009°06'3 5.3
2017-Jun-18 21:00N 38°41' W 009°08'3 5.1
2017-Jun-18 20:31N 38°39' W 009°06'2 4.8
2017-Jun-18 20:00N 38°41' W 009°08'3 6.0
2017-Jun-18 19:30N 38°39' W 009°05'0 0.6
2017-Jun-18 19:00N 38°39' W 009°05'4 7.9
2017-Jun-18 18:31N 38°42' W 009°08'4 7.1
2017-Jun-18 18:01N 38°39' W 009°05'3 6.4
2017-Jun-18 17:30N 38°42' W 009°08'3 5.0
2017-Jun-18 17:00N 38°40' W 009°06'3 5.1
2017-Jun-18 16:30N 38°42' W 009°08'3 5.9
2017-Jun-18 16:01N 38°39' W 009°06'3 5.2
2017-Jun-18 15:30N 38°41' W 009°08'2 4.6
2017-Jun-18 15:00N 38°40' W 009°06'0 0.1
2017-Jun-18 14:01N 38°40' W 009°06'1 2.3
2017-Jun-18 13:30N 38°39' W 009°05'0 0.0
2017-Jun-18 13:00N 38°39' W 009°05'0 0.0
2017-Jun-18 12:30N 38°39' W 009°05'3 6.5
2017-Jun-18 12:00N 38°41' W 009°08'2 4.8
2017-Jun-18 11:30N 38°39' W 009°06'3 5.5
2017-Jun-18 11:00N 38°42' W 009°08'3 5.4
2017-Jun-18 10:30N 38°39' W 009°06'1 1.7
2017-Jun-18 10:00N 38°39' W 009°05'0 0.0
2017-Jun-18 09:30N 38°39' W 009°05'0 0.0
2017-Jun-18 09:00N 38°39' W 009°05'0 0.0
2017-Jun-16 20:50N 38°39' W 009°05'0 0.4
2017-Jun-16 20:30N 38°39' W 009°05'4 8.1
2017-Jun-16 20:00N 38°42' W 009°08'4 8.4
2017-Jun-16 19:30N 38°39' W 009°05'0 0.0
2017-Jun-16 19:01N 38°39' W 009°05'4 8.2
2017-Jun-16 18:30N 38°42' W 009°08'3 5.1
2017-Jun-16 18:01N 38°40' W 009°07'1 2.2
2017-Jun-16 17:30N 38°39' W 009°06'3 6.9
2017-Jun-16 17:01N 38°42' W 009°08'4 8.3
2017-Jun-16 16:30N 38°39' W 009°05'4 8.3
2017-Jun-16 16:01N 38°42' W 009°08'4 7.6
2017-Jun-16 15:30N 38°39' W 009°05'2 4.9
2017-Jun-16 15:01N 38°41' W 009°07'  

Dump ship's entire track history